Irving South's Hourly Summary for Saturday, March 18, 2017
Hour Temp
(f)
RH
(%)
Solar Rad.
(MJ/m2)
Rainfall
(in)
Wind
(mph)
3/18/2017 12:00 AM 71 59 0 0 0.35
3/18/2017 1:00 AM 69 61 0 0 1.57
3/18/2017 2:00 AM 68 67 0 0 3.02
3/18/2017 3:00 AM 66 72 0 0 2.75
3/18/2017 4:00 AM 65 76 0 0 1.42
3/18/2017 5:00 AM 63 81 0 0 0.16
3/18/2017 6:00 AM 62 87 0 0 0.01
3/18/2017 7:00 AM 62 87 0 0 0.51
3/18/2017 8:00 AM 64 83 0.01 0 3.35
3/18/2017 9:00 AM 64 82 0.06 0 3.09
3/18/2017 10:00 AM 65 76 0.36 0 2.62
3/18/2017 11:00 AM 69 63 1.34 0 2.42
3/18/2017 12:00 PM 73 56 2.31 0 2.23
3/18/2017 1:00 PM 76 52 2.72 0 2.23
3/18/2017 2:00 PM 78 49 2.47 0 2.59
3/18/2017 3:00 PM 80 47 2.21 0 3.23
3/18/2017 4:00 PM 80 43 1.25 0 2.96
3/18/2017 5:00 PM 83 36 1.78 0 2.64
3/18/2017 6:00 PM 83 36 1.29 0 2.31
3/18/2017 7:00 PM 81 40 0.41 0 1.79
3/18/2017 8:00 PM 76 48 0.04 0 0.82
3/18/2017 9:00 PM 73 56 0 0 0.11
3/18/2017 10:00 PM 70 61 0 0 0.03
3/18/2017 11:00 PM 69 64 0 0 0
Data Summary 71 61 16.25 0.00 1.76